sensor_id;sensor_type;location;lat;lon;timestamp;temperature;humidity
2647;DHT22;1333;50.958;6.770;2023-11-19T00:01:32;13.00;99.90
2647;DHT22;1333;50.958;6.770;2023-11-19T00:03:58;13.00;99.90
2647;DHT22;1333;50.958;6.770;2023-11-19T00:06:24;13.00;99.90
2647;DHT22;1333;50.958;6.770;2023-11-19T00:08:50;12.90;99.90
2647;DHT22;1333;50.958;6.770;2023-11-19T00:11:16;13.00;99.90
2647;DHT22;1333;50.958;6.770;2023-11-19T00:13:41;13.00;99.90
2647;DHT22;1333;50.958;6.770;2023-11-19T00:16:08;13.00;99.90
2647;DHT22;1333;50.958;6.770;2023-11-19T00:18:35;13.00;99.90
2647;DHT22;1333;50.958;6.770;2023-11-19T00:21:01;12.90;99.90
2647;DHT22;1333;50.958;6.770;2023-11-19T00:23:27;13.00;99.90
2647;DHT22;1333;50.958;6.770;2023-11-19T00:25:53;13.00;99.90
2647;DHT22;1333;50.958;6.770;2023-11-19T00:28:18;13.00;99.90
2647;DHT22;1333;50.958;6.770;2023-11-19T00:30:44;13.00;99.90
2647;DHT22;1333;50.958;6.770;2023-11-19T00:33:10;13.00;99.90
2647;DHT22;1333;50.958;6.770;2023-11-19T00:35:35;13.00;99.90
2647;DHT22;1333;50.958;6.770;2023-11-19T00:38:01;13.00;99.90
2647;DHT22;1333;50.958;6.770;2023-11-19T00:40:27;13.00;99.90
2647;DHT22;1333;50.958;6.770;2023-11-19T00:42:53;13.00;99.90
2647;DHT22;1333;50.958;6.770;2023-11-19T00:45:19;13.10;99.90
2647;DHT22;1333;50.958;6.770;2023-11-19T00:47:44;13.10;99.90
2647;DHT22;1333;50.958;6.770;2023-11-19T00:50:10;13.10;99.90
2647;DHT22;1333;50.958;6.770;2023-11-19T00:52:37;13.20;99.90
2647;DHT22;1333;50.958;6.770;2023-11-19T00:55:03;13.20;99.90
2647;DHT22;1333;50.958;6.770;2023-11-19T00:57:30;13.10;99.90
2647;DHT22;1333;50.958;6.770;2023-11-19T00:59:55;13.20;99.90
2647;DHT22;1333;50.958;6.770;2023-11-19T01:02:21;13.20;99.90
2647;DHT22;1333;50.958;6.770;2023-11-19T01:04:46;13.20;99.90
2647;DHT22;1333;50.958;6.770;2023-11-19T01:07:12;13.30;99.90
2647;DHT22;1333;50.958;6.770;2023-11-19T01:09:38;13.30;99.90
2647;DHT22;1333;50.958;6.770;2023-11-19T01:12:03;13.40;99.90
2647;DHT22;1333;50.958;6.770;2023-11-19T01:14:30;13.30;99.90
2647;DHT22;1333;50.958;6.770;2023-11-19T01:16:55;13.30;99.90
2647;DHT22;1333;50.958;6.770;2023-11-19T01:19:22;13.30;99.90
2647;DHT22;1333;50.958;6.770;2023-11-19T01:21:50;13.30;99.90
2647;DHT22;1333;50.958;6.770;2023-11-19T01:24:16;13.30;99.90
2647;DHT22;1333;50.958;6.770;2023-11-19T01:26:43;13.20;99.90
2647;DHT22;1333;50.958;6.770;2023-11-19T01:29:11;13.20;99.90
2647;DHT22;1333;50.958;6.770;2023-11-19T01:31:42;13.20;99.90
2647;DHT22;1333;50.958;6.770;2023-11-19T01:34:08;13.20;99.90
2647;DHT22;1333;50.958;6.770;2023-11-19T01:36:33;13.30;99.90
2647;DHT22;1333;50.958;6.770;2023-11-19T01:38:59;13.30;99.90
2647;DHT22;1333;50.958;6.770;2023-11-19T01:41:25;13.20;99.90
2647;DHT22;1333;50.958;6.770;2023-11-19T01:43:50;13.30;99.90
2647;DHT22;1333;50.958;6.770;2023-11-19T01:46:16;13.40;99.90
2647;DHT22;1333;50.958;6.770;2023-11-19T01:48:44;13.40;99.90
2647;DHT22;1333;50.958;6.770;2023-11-19T01:51:10;13.40;99.90
2647;DHT22;1333;50.958;6.770;2023-11-19T01:53:37;13.30;99.90
2647;DHT22;1333;50.958;6.770;2023-11-19T01:56:05;13.40;99.90
2647;DHT22;1333;50.958;6.770;2023-11-19T01:58:35;13.40;99.90
2647;DHT22;1333;50.958;6.770;2023-11-19T02:01:00;13.40;99.90
2647;DHT22;1333;50.958;6.770;2023-11-19T02:03:30;13.40;99.90
2647;DHT22;1333;50.958;6.770;2023-11-19T02:05:56;13.50;99.90
2647;DHT22;1333;50.958;6.770;2023-11-19T02:08:22;13.50;99.90
2647;DHT22;1333;50.958;6.770;2023-11-19T02:10:48;13.50;99.90
2647;DHT22;1333;50.958;6.770;2023-11-19T02:13:13;13.50;99.90
2647;DHT22;1333;50.958;6.770;2023-11-19T02:15:40;13.50;99.90
2647;DHT22;1333;50.958;6.770;2023-11-19T02:18:22;13.60;99.90
2647;DHT22;1333;50.958;6.770;2023-11-19T02:20:49;13.60;99.90
2647;DHT22;1333;50.958;6.770;2023-11-19T02:23:15;13.50;99.90
2647;DHT22;1333;50.958;6.770;2023-11-19T02:25:43;13.60;99.90
2647;DHT22;1333;50.958;6.770;2023-11-19T02:28:09;13.50;99.90
2647;DHT22;1333;50.958;6.770;2023-11-19T02:30:37;13.60;99.90
2647;DHT22;1333;50.958;6.770;2023-11-19T02:33:03;13.60;99.90
2647;DHT22;1333;50.958;6.770;2023-11-19T02:35:31;13.70;99.90
2647;DHT22;1333;50.958;6.770;2023-11-19T02:37:58;13.60;99.90
2647;DHT22;1333;50.958;6.770;2023-11-19T02:40:29;13.70;99.90
2647;DHT22;1333;50.958;6.770;2023-11-19T02:42:55;13.60;99.90
2647;DHT22;1333;50.958;6.770;2023-11-19T02:45:24;13.50;99.90
2647;DHT22;1333;50.958;6.770;2023-11-19T02:47:51;13.40;99.90
2647;DHT22;1333;50.958;6.770;2023-11-19T02:50:18;13.40;99.90
2647;DHT22;1333;50.958;6.770;2023-11-19T02:52:51;13.40;99.90
2647;DHT22;1333;50.958;6.770;2023-11-19T02:55:16;13.30;99.90
2647;DHT22;1333;50.958;6.770;2023-11-19T02:57:43;13.20;99.90
2647;DHT22;1333;50.958;6.770;2023-11-19T03:00:17;13.10;99.90
2647;DHT22;1333;50.958;6.770;2023-11-19T03:02:44;13.10;99.90
2647;DHT22;1333;50.958;6.770;2023-11-19T03:05:14;13.10;99.90
2647;DHT22;1333;50.958;6.770;2023-11-19T03:07:42;13.00;99.90
2647;DHT22;1333;50.958;6.770;2023-11-19T03:10:12;13.00;99.90
2647;DHT22;1333;50.958;6.770;2023-11-19T03:12:42;13.00;99.90
2647;DHT22;1333;50.958;6.770;2023-11-19T03:15:08;13.00;99.90
2647;DHT22;1333;50.958;6.770;2023-11-19T03:17:40;13.00;99.90
2647;DHT22;1333;50.958;6.770;2023-11-19T03:20:08;13.00;99.90
2647;DHT22;1333;50.958;6.770;2023-11-19T03:22:40;13.10;99.90
2647;DHT22;1333;50.958;6.770;2023-11-19T03:25:07;13.10;99.90
2647;DHT22;1333;50.958;6.770;2023-11-19T03:27:34;13.10;99.90
2647;DHT22;1333;50.958;6.770;2023-11-19T03:30:01;13.20;99.90
2647;DHT22;1333;50.958;6.770;2023-11-19T03:32:27;13.20;99.90
2647;DHT22;1333;50.958;6.770;2023-11-19T03:34:52;13.20;99.90
2647;DHT22;1333;50.958;6.770;2023-11-19T03:37:18;13.30;99.90
2647;DHT22;1333;50.958;6.770;2023-11-19T03:39:44;13.30;99.90
2647;DHT22;1333;50.958;6.770;2023-11-19T03:42:10;13.40;99.90
2647;DHT22;1333;50.958;6.770;2023-11-19T03:44:38;13.50;99.90
2647;DHT22;1333;50.958;6.770;2023-11-19T03:47:04;13.50;99.90
2647;DHT22;1333;50.958;6.770;2023-11-19T03:49:29;13.50;99.90
2647;DHT22;1333;50.958;6.770;2023-11-19T03:51:55;13.50;99.90
2647;DHT22;1333;50.958;6.770;2023-11-19T03:54:20;13.40;99.90
2647;DHT22;1333;50.958;6.770;2023-11-19T03:56:48;13.30;99.90
2647;DHT22;1333;50.958;6.770;2023-11-19T03:59:13;13.30;99.90
2647;DHT22;1333;50.958;6.770;2023-11-19T04:01:40;13.30;99.90
2647;DHT22;1333;50.958;6.770;2023-11-19T04:04:06;13.20;99.90
2647;DHT22;1333;50.958;6.770;2023-11-19T04:06:31;13.20;99.90
2647;DHT22;1333;50.958;6.770;2023-11-19T04:08:57;13.30;99.90
2647;DHT22;1333;50.958;6.770;2023-11-19T04:11:23;13.20;99.90
2647;DHT22;1333;50.958;6.770;2023-11-19T04:13:48;13.20;99.90
2647;DHT22;1333;50.958;6.770;2023-11-19T04:16:14;13.20;99.90
2647;DHT22;1333;50.958;6.770;2023-11-19T04:18:40;13.20;99.90
2647;DHT22;1333;50.958;6.770;2023-11-19T04:21:06;13.20;99.90
2647;DHT22;1333;50.958;6.770;2023-11-19T04:23:32;13.20;99.90
2647;DHT22;1333;50.958;6.770;2023-11-19T04:25:57;13.20;99.90
2647;DHT22;1333;50.958;6.770;2023-11-19T04:28:23;13.10;99.90
2647;DHT22;1333;50.958;6.770;2023-11-19T04:30:52;13.20;99.90
2647;DHT22;1333;50.958;6.770;2023-11-19T04:33:17;13.10;99.90
2647;DHT22;1333;50.958;6.770;2023-11-19T04:35:43;13.20;99.90
2647;DHT22;1333;50.958;6.770;2023-11-19T04:38:08;13.20;99.90
2647;DHT22;1333;50.958;6.770;2023-11-19T04:40:34;13.30;99.90
2647;DHT22;1333;50.958;6.770;2023-11-19T04:43:00;13.30;99.90
2647;DHT22;1333;50.958;6.770;2023-11-19T04:45:25;13.30;99.90
2647;DHT22;1333;50.958;6.770;2023-11-19T04:47:51;13.30;99.90
2647;DHT22;1333;50.958;6.770;2023-11-19T04:50:16;13.30;99.90
2647;DHT22;1333;50.958;6.770;2023-11-19T04:52:42;13.20;99.90
2647;DHT22;1333;50.958;6.770;2023-11-19T04:55:10;13.20;99.90
2647;DHT22;1333;50.958;6.770;2023-11-19T04:57:37;13.10;99.90
2647;DHT22;1333;50.958;6.770;2023-11-19T05:00:03;13.10;99.90
2647;DHT22;1333;50.958;6.770;2023-11-19T05:02:30;13.00;99.90
2647;DHT22;1333;50.958;6.770;2023-11-19T05:04:56;13.00;99.90
2647;DHT22;1333;50.958;6.770;2023-11-19T05:07:21;12.90;99.90
2647;DHT22;1333;50.958;6.770;2023-11-19T05:09:47;12.90;99.90
2647;DHT22;1333;50.958;6.770;2023-11-19T05:12:12;12.80;99.90
2647;DHT22;1333;50.958;6.770;2023-11-19T05:14:38;12.80;99.90
2647;DHT22;1333;50.958;6.770;2023-11-19T05:17:04;12.80;99.90
2647;DHT22;1333;50.958;6.770;2023-11-19T05:19:29;12.70;99.90
2647;DHT22;1333;50.958;6.770;2023-11-19T05:21:55;12.70;99.90
2647;DHT22;1333;50.958;6.770;2023-11-19T05:24:20;12.70;99.90
2647;DHT22;1333;50.958;6.770;2023-11-19T05:26:46;12.70;99.90
2647;DHT22;1333;50.958;6.770;2023-11-19T05:29:12;12.70;99.90
2647;DHT22;1333;50.958;6.770;2023-11-19T05:31:38;12.60;99.90
2647;DHT22;1333;50.958;6.770;2023-11-19T05:34:04;12.60;99.90
2647;DHT22;1333;50.958;6.770;2023-11-19T05:36:29;12.60;99.90
2647;DHT22;1333;50.958;6.770;2023-11-19T05:38:55;12.60;99.90
2647;DHT22;1333;50.958;6.770;2023-11-19T05:41:21;12.60;99.90
2647;DHT22;1333;50.958;6.770;2023-11-19T05:43:46;12.50;99.90
2647;DHT22;1333;50.958;6.770;2023-11-19T05:46:12;12.60;99.90
2647;DHT22;1333;50.958;6.770;2023-11-19T05:48:38;12.50;99.90
2647;DHT22;1333;50.958;6.770;2023-11-19T05:51:04;12.50;99.90
2647;DHT22;1333;50.958;6.770;2023-11-19T05:53:31;12.50;99.90
2647;DHT22;1333;50.958;6.770;2023-11-19T05:55:57;12.40;99.90
2647;DHT22;1333;50.958;6.770;2023-11-19T05:58:24;12.40;99.90
2647;DHT22;1333;50.958;6.770;2023-11-19T06:00:54;12.40;99.90
2647;DHT22;1333;50.958;6.770;2023-11-19T06:03:20;12.40;99.90
2647;DHT22;1333;50.958;6.770;2023-11-19T06:05:47;12.40;99.90
2647;DHT22;1333;50.958;6.770;2023-11-19T06:08:12;12.40;99.90
2647;DHT22;1333;50.958;6.770;2023-11-19T06:10:39;12.40;99.90
2647;DHT22;1333;50.958;6.770;2023-11-19T06:13:05;12.30;99.90
2647;DHT22;1333;50.958;6.770;2023-11-19T06:15:30;12.30;99.90
2647;DHT22;1333;50.958;6.770;2023-11-19T06:17:58;12.30;99.90
2647;DHT22;1333;50.958;6.770;2023-11-19T06:20:26;12.30;99.90
2647;DHT22;1333;50.958;6.770;2023-11-19T06:22:54;12.40;99.90
2647;DHT22;1333;50.958;6.770;2023-11-19T06:25:19;12.30;99.90
2647;DHT22;1333;50.958;6.770;2023-11-19T06:27:45;12.40;99.90
2647;DHT22;1333;50.958;6.770;2023-11-19T06:30:11;12.30;99.90
2647;DHT22;1333;50.958;6.770;2023-11-19T06:32:37;12.30;99.90
2647;DHT22;1333;50.958;6.770;2023-11-19T06:35:02;12.30;99.90
2647;DHT22;1333;50.958;6.770;2023-11-19T06:37:30;12.30;99.90
2647;DHT22;1333;50.958;6.770;2023-11-19T06:39:55;12.30;99.90
2647;DHT22;1333;50.958;6.770;2023-11-19T06:42:21;12.20;99.90
2647;DHT22;1333;50.958;6.770;2023-11-19T06:44:46;12.20;99.90
2647;DHT22;1333;50.958;6.770;2023-11-19T06:47:12;12.10;99.90
2647;DHT22;1333;50.958;6.770;2023-11-19T06:49:37;12.20;99.90
2647;DHT22;1333;50.958;6.770;2023-11-19T06:52:03;12.10;99.90
2647;DHT22;1333;50.958;6.770;2023-11-19T06:54:30;12.20;99.90
2647;DHT22;1333;50.958;6.770;2023-11-19T06:56:56;12.20;99.90
2647;DHT22;1333;50.958;6.770;2023-11-19T06:59:22;12.10;99.90
2647;DHT22;1333;50.958;6.770;2023-11-19T07:01:48;12.20;99.90
2647;DHT22;1333;50.958;6.770;2023-11-19T07:04:14;12.10;99.90
2647;DHT22;1333;50.958;6.770;2023-11-19T07:06:39;12.10;99.90
2647;DHT22;1333;50.958;6.770;2023-11-19T07:09:08;12.10;99.90
2647;DHT22;1333;50.958;6.770;2023-11-19T07:11:38;12.20;99.90
2647;DHT22;1333;50.958;6.770;2023-11-19T07:14:04;12.20;99.90
2647;DHT22;1333;50.958;6.770;2023-11-19T07:16:32;12.20;99.90
2647;DHT22;1333;50.958;6.770;2023-11-19T07:18:58;12.20;99.90
2647;DHT22;1333;50.958;6.770;2023-11-19T07:21:25;12.20;99.90
2647;DHT22;1333;50.958;6.770;2023-11-19T07:23:50;12.20;99.90
2647;DHT22;1333;50.958;6.770;2023-11-19T07:26:17;12.30;99.90
2647;DHT22;1333;50.958;6.770;2023-11-19T07:28:42;12.30;99.90
2647;DHT22;1333;50.958;6.770;2023-11-19T07:31:10;12.40;99.90
2647;DHT22;1333;50.958;6.770;2023-11-19T07:33:36;12.50;99.90
2647;DHT22;1333;50.958;6.770;2023-11-19T07:36:02;12.50;99.90
2647;DHT22;1333;50.958;6.770;2023-11-19T07:38:28;12.60;99.90
2647;DHT22;1333;50.958;6.770;2023-11-19T07:40:53;12.70;99.90
2647;DHT22;1333;50.958;6.770;2023-11-19T07:43:19;12.70;99.90
2647;DHT22;1333;50.958;6.770;2023-11-19T07:45:44;12.80;99.90
2647;DHT22;1333;50.958;6.770;2023-11-19T07:48:11;12.70;99.90
2647;DHT22;1333;50.958;6.770;2023-11-19T07:50:39;12.80;99.90
2647;DHT22;1333;50.958;6.770;2023-11-19T07:53:09;12.90;99.90
2647;DHT22;1333;50.958;6.770;2023-11-19T07:55:34;13.10;99.90
2647;DHT22;1333;50.958;6.770;2023-11-19T07:58:00;13.40;99.90
2647;DHT22;1333;50.958;6.770;2023-11-19T08:00:26;13.60;99.90
2647;DHT22;1333;50.958;6.770;2023-11-19T08:02:52;13.70;99.90
2647;DHT22;1333;50.958;6.770;2023-11-19T08:05:17;13.60;99.90
2647;DHT22;1333;50.958;6.770;2023-11-19T08:07:43;13.90;99.90
2647;DHT22;1333;50.958;6.770;2023-11-19T08:10:08;14.60;99.90
2647;DHT22;1333;50.958;6.770;2023-11-19T08:12:37;15.50;99.90
2647;DHT22;1333;50.958;6.770;2023-11-19T08:15:03;16.40;99.90
2647;DHT22;1333;50.958;6.770;2023-11-19T08:17:30;17.20;99.90
2647;DHT22;1333;50.958;6.770;2023-11-19T08:19:55;18.00;99.90
2647;DHT22;1333;50.958;6.770;2023-11-19T08:22:21;18.60;99.90
2647;DHT22;1333;50.958;6.770;2023-11-19T08:24:48;18.90;99.90
2647;DHT22;1333;50.958;6.770;2023-11-19T08:27:13;19.20;99.90
2647;DHT22;1333;50.958;6.770;2023-11-19T08:29:39;19.00;99.90
2647;DHT22;1333;50.958;6.770;2023-11-19T08:32:06;18.90;99.90
2647;DHT22;1333;50.958;6.770;2023-11-19T08:34:31;19.00;99.90
2647;DHT22;1333;50.958;6.770;2023-11-19T08:36:57;19.50;99.90
2647;DHT22;1333;50.958;6.770;2023-11-19T08:39:22;19.90;99.90
2647;DHT22;1333;50.958;6.770;2023-11-19T08:41:48;20.00;99.90
2647;DHT22;1333;50.958;6.770;2023-11-19T08:44:14;20.50;99.90
2647;DHT22;1333;50.958;6.770;2023-11-19T08:46:45;20.80;99.90
2647;DHT22;1333;50.958;6.770;2023-11-19T08:49:11;20.90;99.90
2647;DHT22;1333;50.958;6.770;2023-11-19T08:51:36;21.00;99.90
2647;DHT22;1333;50.958;6.770;2023-11-19T08:54:02;21.30;99.90
2647;DHT22;1333;50.958;6.770;2023-11-19T08:56:27;21.50;94.90
2647;DHT22;1333;50.958;6.770;2023-11-19T08:58:58;21.60;93.50
2647;DHT22;1333;50.958;6.770;2023-11-19T09:01:23;22.00;96.10
2647;DHT22;1333;50.958;6.770;2023-11-19T09:03:50;22.40;84.90
2647;DHT22;1333;50.958;6.770;2023-11-19T09:06:15;22.40;80.40
2647;DHT22;1333;50.958;6.770;2023-11-19T09:08:42;22.40;80.60
2647;DHT22;1333;50.958;6.770;2023-11-19T09:11:08;22.70;74.70
2647;DHT22;1333;50.958;6.770;2023-11-19T09:13:37;23.30;81.10
2647;DHT22;1333;50.958;6.770;2023-11-19T09:16:02;23.50;64.90
2647;DHT22;1333;50.958;6.770;2023-11-19T09:18:31;22.90;62.10
2647;DHT22;1333;50.958;6.770;2023-11-19T09:20:57;23.30;62.60
2647;DHT22;1333;50.958;6.770;2023-11-19T09:23:23;23.30;59.30
2647;DHT22;1333;50.958;6.770;2023-11-19T09:25:50;23.40;60.00
2647;DHT22;1333;50.958;6.770;2023-11-19T09:28:16;23.60;59.70
2647;DHT22;1333;50.958;6.770;2023-11-19T09:30:41;23.40;58.00
2647;DHT22;1333;50.958;6.770;2023-11-19T09:33:07;23.60;60.20
2647;DHT22;1333;50.958;6.770;2023-11-19T09:35:32;24.00;58.90
2647;DHT22;1333;50.958;6.770;2023-11-19T09:37:58;23.20;56.10
2647;DHT22;1333;50.958;6.770;2023-11-19T09:40:24;23.30;60.80
2647;DHT22;1333;50.958;6.770;2023-11-19T09:42:50;23.10;58.80
2647;DHT22;1333;50.958;6.770;2023-11-19T09:45:17;22.60;57.90
2647;DHT22;1333;50.958;6.770;2023-11-19T09:47:46;21.90;60.40
2647;DHT22;1333;50.958;6.770;2023-11-19T09:50:19;21.80;66.30
2647;DHT22;1333;50.958;6.770;2023-11-19T09:52:45;21.70;70.00
2647;DHT22;1333;50.958;6.770;2023-11-19T09:55:11;22.20;78.00
2647;DHT22;1333;50.958;6.770;2023-11-19T09:57:40;22.30;68.60
2647;DHT22;1333;50.958;6.770;2023-11-19T10:00:10;22.40;69.80
2647;DHT22;1333;50.958;6.770;2023-11-19T10:02:39;23.10;64.50
2647;DHT22;1333;50.958;6.770;2023-11-19T10:05:06;23.20;59.70
2647;DHT22;1333;50.958;6.770;2023-11-19T10:07:33;23.80;59.60
2647;DHT22;1333;50.958;6.770;2023-11-19T10:10:02;24.20;56.60
2647;DHT22;1333;50.958;6.770;2023-11-19T10:12:31;23.90;53.40
2647;DHT22;1333;50.958;6.770;2023-11-19T10:14:58;24.70;54.70
2647;DHT22;1333;50.958;6.770;2023-11-19T10:17:34;24.90;52.10
2647;DHT22;1333;50.958;6.770;2023-11-19T10:20:00;24.60;52.00
2647;DHT22;1333;50.958;6.770;2023-11-19T10:22:27;24.60;52.60
2647;DHT22;1333;50.958;6.770;2023-11-19T10:24:53;24.40;51.70
2647;DHT22;1333;50.958;6.770;2023-11-19T10:27:19;24.80;52.80
2647;DHT22;1333;50.958;6.770;2023-11-19T10:29:46;24.90;52.10
2647;DHT22;1333;50.958;6.770;2023-11-19T10:32:12;25.40;51.10
2647;DHT22;1333;50.958;6.770;2023-11-19T10:34:39;25.60;49.40
2647;DHT22;1333;50.958;6.770;2023-11-19T10:37:05;25.70;49.10
2647;DHT22;1333;50.958;6.770;2023-11-19T10:39:53;25.40;48.30
2647;DHT22;1333;50.958;6.770;2023-11-19T10:42:22;24.30;48.70
2647;DHT22;1333;50.958;6.770;2023-11-19T10:44:47;22.90;49.00
2647;DHT22;1333;50.958;6.770;2023-11-19T10:47:18;22.70;51.50
2647;DHT22;1333;50.958;6.770;2023-11-19T10:49:45;21.80;51.60
2647;DHT22;1333;50.958;6.770;2023-11-19T10:52:17;20.60;53.60
2647;DHT22;1333;50.958;6.770;2023-11-19T10:54:49;19.90;62.40
2647;DHT22;1333;50.958;6.770;2023-11-19T10:57:19;19.60;89.80
2647;DHT22;1333;50.958;6.770;2023-11-19T10:59:45;19.50;98.40
2647;DHT22;1333;50.958;6.770;2023-11-19T11:02:16;19.10;99.60
2647;DHT22;1333;50.958;6.770;2023-11-19T11:04:47;18.50;99.90
2647;DHT22;1333;50.958;6.770;2023-11-19T11:07:14;17.80;99.90
2647;DHT22;1333;50.958;6.770;2023-11-19T11:09:41;17.30;99.90
2647;DHT22;1333;50.958;6.770;2023-11-19T11:12:09;16.90;99.90
2647;DHT22;1333;50.958;6.770;2023-11-19T11:14:37;17.00;99.90
2647;DHT22;1333;50.958;6.770;2023-11-19T11:17:06;18.10;99.90
2647;DHT22;1333;50.958;6.770;2023-11-19T11:19:34;19.10;99.90
2647;DHT22;1333;50.958;6.770;2023-11-19T11:22:00;19.40;99.90
2647;DHT22;1333;50.958;6.770;2023-11-19T11:32:59;19.30;99.90
2647;DHT22;1333;50.958;6.770;2023-11-19T11:35:52;20.00;99.90
2647;DHT22;1333;50.958;6.770;2023-11-19T11:38:22;19.70;95.30
2647;DHT22;1333;50.958;6.770;2023-11-19T11:41:18;19.00;99.90
2647;DHT22;1333;50.958;6.770;2023-11-19T11:43:51;18.00;99.90
2647;DHT22;1333;50.958;6.770;2023-11-19T11:49:05;18.30;99.90
2647;DHT22;1333;50.958;6.770;2023-11-19T11:57:07;17.60;99.90
2647;DHT22;1333;50.958;6.770;2023-11-19T11:59:49;18.00;99.90
2647;DHT22;1333;50.958;6.770;2023-11-19T12:02:20;18.80;99.90
2647;DHT22;1333;50.958;6.770;2023-11-19T12:04:48;19.60;99.90
2647;DHT22;1333;50.958;6.770;2023-11-19T12:07:24;19.70;99.90
2647;DHT22;1333;50.958;6.770;2023-11-19T12:09:57;20.10;99.90
2647;DHT22;1333;50.958;6.770;2023-11-19T12:12:32;20.20;99.20
2647;DHT22;1333;50.958;6.770;2023-11-19T12:17:50;21.00;99.90
2647;DHT22;1333;50.958;6.770;2023-11-19T12:20:23;20.30;93.90
2647;DHT22;1333;50.958;6.770;2023-11-19T12:22:49;20.10;97.40
2647;DHT22;1333;50.958;6.770;2023-11-19T12:25:16;19.40;99.90
2647;DHT22;1333;50.958;6.770;2023-11-19T12:27:44;19.30;99.90
2647;DHT22;1333;50.958;6.770;2023-11-19T12:30:10;19.00;99.90
2647;DHT22;1333;50.958;6.770;2023-11-19T12:32:44;18.50;99.90
2647;DHT22;1333;50.958;6.770;2023-11-19T12:35:10;17.90;99.90
2647;DHT22;1333;50.958;6.770;2023-11-19T12:37:46;17.60;99.90
2647;DHT22;1333;50.958;6.770;2023-11-19T12:40:24;17.30;99.90
2647;DHT22;1333;50.958;6.770;2023-11-19T12:42:52;16.90;99.90
2647;DHT22;1333;50.958;6.770;2023-11-19T12:45:21;16.50;99.90
2647;DHT22;1333;50.958;6.770;2023-11-19T12:47:49;16.30;99.90
2647;DHT22;1333;50.958;6.770;2023-11-19T12:50:16;16.00;99.90
2647;DHT22;1333;50.958;6.770;2023-11-19T12:52:55;15.80;99.90
2647;DHT22;1333;50.958;6.770;2023-11-19T12:55:27;15.60;99.90
2647;DHT22;1333;50.958;6.770;2023-11-19T12:57:52;15.50;99.90
2647;DHT22;1333;50.958;6.770;2023-11-19T13:00:21;15.40;99.90
2647;DHT22;1333;50.958;6.770;2023-11-19T13:02:49;15.40;99.90
2647;DHT22;1333;50.958;6.770;2023-11-19T13:05:25;15.50;99.90
2647;DHT22;1333;50.958;6.770;2023-11-19T13:08:05;15.90;99.90
2647;DHT22;1333;50.958;6.770;2023-11-19T13:10:32;16.50;99.90
2647;DHT22;1333;50.958;6.770;2023-11-19T13:13:08;16.90;99.90
2647;DHT22;1333;50.958;6.770;2023-11-19T13:15:34;17.70;99.90
2647;DHT22;1333;50.958;6.770;2023-11-19T13:18:00;18.70;99.90
2647;DHT22;1333;50.958;6.770;2023-11-19T13:20:26;18.80;99.90
2647;DHT22;1333;50.958;6.770;2023-11-19T13:22:59;18.30;99.90
2647;DHT22;1333;50.958;6.770;2023-11-19T13:25:26;17.70;99.90
2647;DHT22;1333;50.958;6.770;2023-11-19T13:27:52;17.40;99.90
2647;DHT22;1333;50.958;6.770;2023-11-19T13:30:18;17.10;99.90
2647;DHT22;1333;50.958;6.770;2023-11-19T13:32:44;16.80;99.90
2647;DHT22;1333;50.958;6.770;2023-11-19T13:35:12;16.40;99.90
2647;DHT22;1333;50.958;6.770;2023-11-19T13:37:39;16.30;99.90
2647;DHT22;1333;50.958;6.770;2023-11-19T13:40:06;16.40;99.90
2647;DHT22;1333;50.958;6.770;2023-11-19T13:42:32;16.50;99.90
2647;DHT22;1333;50.958;6.770;2023-11-19T13:44:57;16.50;99.90
2647;DHT22;1333;50.958;6.770;2023-11-19T13:47:23;17.10;99.90
2647;DHT22;1333;50.958;6.770;2023-11-19T13:49:49;17.60;99.90
2647;DHT22;1333;50.958;6.770;2023-11-19T13:52:14;17.40;99.90
2647;DHT22;1333;50.958;6.770;2023-11-19T13:54:40;17.10;99.90
2647;DHT22;1333;50.958;6.770;2023-11-19T13:57:06;16.80;99.90
2647;DHT22;1333;50.958;6.770;2023-11-19T13:59:32;16.30;99.90
2647;DHT22;1333;50.958;6.770;2023-11-19T14:01:58;16.20;99.90
2647;DHT22;1333;50.958;6.770;2023-11-19T14:04:23;16.20;99.90
2647;DHT22;1333;50.958;6.770;2023-11-19T14:06:49;16.00;99.90
2647;DHT22;1333;50.958;6.770;2023-11-19T14:09:15;15.90;99.90
2647;DHT22;1333;50.958;6.770;2023-11-19T14:11:40;15.80;99.90
2647;DHT22;1333;50.958;6.770;2023-11-19T14:14:06;15.70;99.90
2647;DHT22;1333;50.958;6.770;2023-11-19T14:16:31;15.60;99.90
2647;DHT22;1333;50.958;6.770;2023-11-19T14:18:57;15.50;99.90
2647;DHT22;1333;50.958;6.770;2023-11-19T14:21:23;15.30;99.90
2647;DHT22;1333;50.958;6.770;2023-11-19T14:23:50;15.20;99.90
2647;DHT22;1333;50.958;6.770;2023-11-19T14:26:15;15.10;99.90
2647;DHT22;1333;50.958;6.770;2023-11-19T14:28:42;15.10;99.90
2647;DHT22;1333;50.958;6.770;2023-11-19T14:31:07;15.00;99.90
2647;DHT22;1333;50.958;6.770;2023-11-19T14:33:33;14.90;99.90
2647;DHT22;1333;50.958;6.770;2023-11-19T14:36:00;14.80;99.90
2647;DHT22;1333;50.958;6.770;2023-11-19T14:38:26;14.80;99.90
2647;DHT22;1333;50.958;6.770;2023-11-19T14:40:51;14.90;99.90
2647;DHT22;1333;50.958;6.770;2023-11-19T14:43:17;14.90;99.90
2647;DHT22;1333;50.958;6.770;2023-11-19T14:45:42;15.00;99.90
2647;DHT22;1333;50.958;6.770;2023-11-19T14:48:08;15.20;99.90
2647;DHT22;1333;50.958;6.770;2023-11-19T14:50:35;15.10;99.90
2647;DHT22;1333;50.958;6.770;2023-11-19T14:53:01;15.20;99.90
2647;DHT22;1333;50.958;6.770;2023-11-19T14:55:26;15.00;99.90
2647;DHT22;1333;50.958;6.770;2023-11-19T14:57:52;15.00;99.90
2647;DHT22;1333;50.958;6.770;2023-11-19T15:00:18;14.80;99.90
2647;DHT22;1333;50.958;6.770;2023-11-19T15:02:43;14.80;99.90
2647;DHT22;1333;50.958;6.770;2023-11-19T15:05:09;15.00;99.90
2647;DHT22;1333;50.958;6.770;2023-11-19T15:07:38;15.00;99.90
2647;DHT22;1333;50.958;6.770;2023-11-19T15:10:05;14.80;99.90
2647;DHT22;1333;50.958;6.770;2023-11-19T15:12:38;14.70;99.90
2647;DHT22;1333;50.958;6.770;2023-11-19T15:15:09;14.50;99.90
2647;DHT22;1333;50.958;6.770;2023-11-19T15:17:35;14.40;99.90
2647;DHT22;1333;50.958;6.770;2023-11-19T15:20:03;14.20;99.90
2647;DHT22;1333;50.958;6.770;2023-11-19T15:22:28;14.10;99.90
2647;DHT22;1333;50.958;6.770;2023-11-19T15:24:54;14.00;99.90
2647;DHT22;1333;50.958;6.770;2023-11-19T15:27:19;13.90;99.90
2647;DHT22;1333;50.958;6.770;2023-11-19T15:29:45;13.90;99.90
2647;DHT22;1333;50.958;6.770;2023-11-19T15:32:10;13.80;99.90
2647;DHT22;1333;50.958;6.770;2023-11-19T15:34:36;13.70;99.90
2647;DHT22;1333;50.958;6.770;2023-11-19T15:37:03;13.60;99.90
2647;DHT22;1333;50.958;6.770;2023-11-19T15:39:29;13.50;99.90
2647;DHT22;1333;50.958;6.770;2023-11-19T15:41:55;13.30;99.90
2647;DHT22;1333;50.958;6.770;2023-11-19T15:44:22;13.20;99.90
2647;DHT22;1333;50.958;6.770;2023-11-19T15:46:47;13.00;99.90
2647;DHT22;1333;50.958;6.770;2023-11-19T15:49:13;12.90;99.90
2647;DHT22;1333;50.958;6.770;2023-11-19T15:51:38;12.80;99.90
2647;DHT22;1333;50.958;6.770;2023-11-19T15:54:04;12.70;99.90
2647;DHT22;1333;50.958;6.770;2023-11-19T15:56:30;12.70;99.90
2647;DHT22;1333;50.958;6.770;2023-11-19T15:58:56;12.70;99.90
2647;DHT22;1333;50.958;6.770;2023-11-19T16:01:22;12.60;99.90
2647;DHT22;1333;50.958;6.770;2023-11-19T16:03:47;12.60;99.90
2647;DHT22;1333;50.958;6.770;2023-11-19T16:06:13;12.50;99.90
2647;DHT22;1333;50.958;6.770;2023-11-19T16:08:38;12.50;99.90
2647;DHT22;1333;50.958;6.770;2023-11-19T16:11:04;12.50;99.90
2647;DHT22;1333;50.958;6.770;2023-11-19T16:13:30;12.50;99.90
2647;DHT22;1333;50.958;6.770;2023-11-19T16:15:55;12.60;99.90
2647;DHT22;1333;50.958;6.770;2023-11-19T16:18:21;12.70;99.90
2647;DHT22;1333;50.958;6.770;2023-11-19T16:20:47;12.80;99.90